sensor_id;sensor_type;location;lat;lon;timestamp;temperature;humidity
15131;DHT22;7666;50.920;4.628;2023-04-25T00:01:23;8.70;99.90
15131;DHT22;7666;50.920;4.628;2023-04-25T00:04:09;8.60;99.90
15131;DHT22;7666;50.920;4.628;2023-04-25T00:06:55;8.60;99.90
15131;DHT22;7666;50.920;4.628;2023-04-25T00:09:42;8.70;99.90
15131;DHT22;7666;50.920;4.628;2023-04-25T00:12:28;8.70;99.90
15131;DHT22;7666;50.920;4.628;2023-04-25T00:15:14;8.70;99.90
15131;DHT22;7666;50.920;4.628;2023-04-25T00:18:00;8.80;99.90
15131;DHT22;7666;50.920;4.628;2023-04-25T00:20:46;8.80;99.90
15131;DHT22;7666;50.920;4.628;2023-04-25T00:23:32;8.80;99.90
15131;DHT22;7666;50.920;4.628;2023-04-25T00:26:18;8.80;99.90
15131;DHT22;7666;50.920;4.628;2023-04-25T00:29:04;8.80;99.90
15131;DHT22;7666;50.920;4.628;2023-04-25T00:31:50;8.80;99.90
15131;DHT22;7666;50.920;4.628;2023-04-25T00:34:36;8.80;99.90
15131;DHT22;7666;50.920;4.628;2023-04-25T00:37:22;8.80;99.90
15131;DHT22;7666;50.920;4.628;2023-04-25T00:40:08;8.80;99.90
15131;DHT22;7666;50.920;4.628;2023-04-25T00:42:55;8.80;99.90
15131;DHT22;7666;50.920;4.628;2023-04-25T00:45:43;8.70;99.90
15131;DHT22;7666;50.920;4.628;2023-04-25T00:48:29;8.70;99.90
15131;DHT22;7666;50.920;4.628;2023-04-25T00:51:18;8.70;99.90
15131;DHT22;7666;50.920;4.628;2023-04-25T00:54:05;8.80;99.90
15131;DHT22;7666;50.920;4.628;2023-04-25T00:56:51;8.80;99.90
15131;DHT22;7666;50.920;4.628;2023-04-25T00:59:37;8.60;99.90
15131;DHT22;7666;50.920;4.628;2023-04-25T01:02:24;8.60;99.90
15131;DHT22;7666;50.920;4.628;2023-04-25T01:05:11;8.60;99.90
15131;DHT22;7666;50.920;4.628;2023-04-25T01:07:58;8.50;99.90
15131;DHT22;7666;50.920;4.628;2023-04-25T01:10:44;8.50;99.90
15131;DHT22;7666;50.920;4.628;2023-04-25T01:13:30;8.50;99.90
15131;DHT22;7666;50.920;4.628;2023-04-25T01:16:17;8.50;99.90
15131;DHT22;7666;50.920;4.628;2023-04-25T01:19:09;8.50;99.90
15131;DHT22;7666;50.920;4.628;2023-04-25T01:21:57;8.50;99.90
15131;DHT22;7666;50.920;4.628;2023-04-25T01:24:43;8.50;99.90
15131;DHT22;7666;50.920;4.628;2023-04-25T01:27:30;8.50;99.90
15131;DHT22;7666;50.920;4.628;2023-04-25T01:30:16;8.50;99.90
15131;DHT22;7666;50.920;4.628;2023-04-25T01:33:03;8.60;99.90
15131;DHT22;7666;50.920;4.628;2023-04-25T01:35:51;8.60;99.90
15131;DHT22;7666;50.920;4.628;2023-04-25T01:38:37;8.60;99.90
15131;DHT22;7666;50.920;4.628;2023-04-25T01:41:23;8.60;99.90
15131;DHT22;7666;50.920;4.628;2023-04-25T01:44:09;8.60;99.90
15131;DHT22;7666;50.920;4.628;2023-04-25T01:46:55;8.50;99.90
15131;DHT22;7666;50.920;4.628;2023-04-25T01:49:41;8.40;99.90
15131;DHT22;7666;50.920;4.628;2023-04-25T01:52:27;8.30;99.90
15131;DHT22;7666;50.920;4.628;2023-04-25T01:55:13;8.30;99.90
15131;DHT22;7666;50.920;4.628;2023-04-25T01:58:01;8.30;99.90
15131;DHT22;7666;50.920;4.628;2023-04-25T02:00:48;8.30;99.90
15131;DHT22;7666;50.920;4.628;2023-04-25T02:03:34;8.40;99.90
15131;DHT22;7666;50.920;4.628;2023-04-25T02:06:20;8.30;99.90
15131;DHT22;7666;50.920;4.628;2023-04-25T02:09:06;8.30;99.90
15131;DHT22;7666;50.920;4.628;2023-04-25T02:11:52;8.30;99.90
15131;DHT22;7666;50.920;4.628;2023-04-25T02:14:38;8.40;99.90
15131;DHT22;7666;50.920;4.628;2023-04-25T02:17:24;8.40;99.90
15131;DHT22;7666;50.920;4.628;2023-04-25T02:20:11;8.40;99.90
15131;DHT22;7666;50.920;4.628;2023-04-25T02:22:57;8.40;99.90
15131;DHT22;7666;50.920;4.628;2023-04-25T02:25:43;8.40;99.90
15131;DHT22;7666;50.920;4.628;2023-04-25T02:28:29;8.40;99.90
15131;DHT22;7666;50.920;4.628;2023-04-25T02:31:16;8.40;99.90
15131;DHT22;7666;50.920;4.628;2023-04-25T02:34:02;8.50;99.90
15131;DHT22;7666;50.920;4.628;2023-04-25T02:36:48;8.50;99.90
15131;DHT22;7666;50.920;4.628;2023-04-25T02:39:35;8.40;99.90
15131;DHT22;7666;50.920;4.628;2023-04-25T02:42:21;8.40;99.90
15131;DHT22;7666;50.920;4.628;2023-04-25T02:45:08;8.40;99.90
15131;DHT22;7666;50.920;4.628;2023-04-25T02:47:54;8.40;99.90
15131;DHT22;7666;50.920;4.628;2023-04-25T02:50:40;8.40;99.90
15131;DHT22;7666;50.920;4.628;2023-04-25T02:53:26;8.30;99.90
15131;DHT22;7666;50.920;4.628;2023-04-25T02:56:12;8.30;99.90
15131;DHT22;7666;50.920;4.628;2023-04-25T02:58:58;8.30;99.90
15131;DHT22;7666;50.920;4.628;2023-04-25T03:01:44;8.30;99.90
15131;DHT22;7666;50.920;4.628;2023-04-25T03:04:30;8.20;99.90
15131;DHT22;7666;50.920;4.628;2023-04-25T03:07:17;8.10;99.90
15131;DHT22;7666;50.920;4.628;2023-04-25T03:10:03;8.00;99.90
15131;DHT22;7666;50.920;4.628;2023-04-25T03:12:49;8.00;99.90
15131;DHT22;7666;50.920;4.628;2023-04-25T03:15:36;7.90;99.90
15131;DHT22;7666;50.920;4.628;2023-04-25T03:18:22;7.80;99.90
15131;DHT22;7666;50.920;4.628;2023-04-25T03:21:08;7.80;99.90
15131;DHT22;7666;50.920;4.628;2023-04-25T03:23:54;7.70;99.90
15131;DHT22;7666;50.920;4.628;2023-04-25T03:26:40;7.70;99.90
15131;DHT22;7666;50.920;4.628;2023-04-25T03:29:26;7.70;99.90
15131;DHT22;7666;50.920;4.628;2023-04-25T03:32:13;7.70;99.90
15131;DHT22;7666;50.920;4.628;2023-04-25T03:34:59;7.60;99.90
15131;DHT22;7666;50.920;4.628;2023-04-25T03:37:45;7.50;99.90
15131;DHT22;7666;50.920;4.628;2023-04-25T03:40:31;7.50;99.90
15131;DHT22;7666;50.920;4.628;2023-04-25T03:43:17;7.40;99.90
15131;DHT22;7666;50.920;4.628;2023-04-25T03:46:03;7.40;99.90
15131;DHT22;7666;50.920;4.628;2023-04-25T03:48:50;7.30;99.90
15131;DHT22;7666;50.920;4.628;2023-04-25T03:51:36;7.20;99.90
15131;DHT22;7666;50.920;4.628;2023-04-25T03:54:21;7.10;99.90
15131;DHT22;7666;50.920;4.628;2023-04-25T03:57:07;7.10;99.90
15131;DHT22;7666;50.920;4.628;2023-04-25T03:59:53;7.10;99.90
15131;DHT22;7666;50.920;4.628;2023-04-25T04:02:39;7.10;99.90
15131;DHT22;7666;50.920;4.628;2023-04-25T04:05:25;7.10;99.90
15131;DHT22;7666;50.920;4.628;2023-04-25T04:08:11;7.10;99.90
15131;DHT22;7666;50.920;4.628;2023-04-25T04:10:58;7.10;99.90
15131;DHT22;7666;50.920;4.628;2023-04-25T04:13:44;7.20;99.90
15131;DHT22;7666;50.920;4.628;2023-04-25T04:16:30;7.30;99.90
15131;DHT22;7666;50.920;4.628;2023-04-25T04:19:16;7.40;99.90
15131;DHT22;7666;50.920;4.628;2023-04-25T04:22:02;7.40;99.90
15131;DHT22;7666;50.920;4.628;2023-04-25T04:24:48;7.40;99.90
15131;DHT22;7666;50.920;4.628;2023-04-25T04:27:35;7.50;99.90
15131;DHT22;7666;50.920;4.628;2023-04-25T04:30:23;7.50;99.90
15131;DHT22;7666;50.920;4.628;2023-04-25T04:33:15;7.50;99.90
15131;DHT22;7666;50.920;4.628;2023-04-25T04:36:01;7.50;99.90
15131;DHT22;7666;50.920;4.628;2023-04-25T04:38:48;7.50;99.90
15131;DHT22;7666;50.920;4.628;2023-04-25T04:41:34;7.50;99.90
15131;DHT22;7666;50.920;4.628;2023-04-25T04:44:20;7.60;99.90
15131;DHT22;7666;50.920;4.628;2023-04-25T04:47:06;7.60;99.90
15131;DHT22;7666;50.920;4.628;2023-04-25T04:49:52;7.60;99.90
15131;DHT22;7666;50.920;4.628;2023-04-25T04:52:38;7.60;99.90
15131;DHT22;7666;50.920;4.628;2023-04-25T04:55:24;7.60;99.90
15131;DHT22;7666;50.920;4.628;2023-04-25T04:58:10;7.60;99.90
15131;DHT22;7666;50.920;4.628;2023-04-25T05:00:56;7.60;99.90
15131;DHT22;7666;50.920;4.628;2023-04-25T05:03:42;7.60;99.90
15131;DHT22;7666;50.920;4.628;2023-04-25T05:06:29;7.60;99.90
15131;DHT22;7666;50.920;4.628;2023-04-25T05:09:15;7.60;99.90
15131;DHT22;7666;50.920;4.628;2023-04-25T05:12:01;7.60;99.90
15131;DHT22;7666;50.920;4.628;2023-04-25T05:14:47;7.50;99.90
15131;DHT22;7666;50.920;4.628;2023-04-25T05:17:33;7.60;99.90
15131;DHT22;7666;50.920;4.628;2023-04-25T05:20:19;7.60;99.90
15131;DHT22;7666;50.920;4.628;2023-04-25T05:23:05;7.60;99.90
15131;DHT22;7666;50.920;4.628;2023-04-25T05:25:52;7.60;99.90
15131;DHT22;7666;50.920;4.628;2023-04-25T05:28:38;7.60;99.90
15131;DHT22;7666;50.920;4.628;2023-04-25T05:31:24;7.70;99.90
15131;DHT22;7666;50.920;4.628;2023-04-25T05:34:10;7.70;99.90
15131;DHT22;7666;50.920;4.628;2023-04-25T05:36:55;7.70;99.90
15131;DHT22;7666;50.920;4.628;2023-04-25T05:39:41;7.70;99.90
15131;DHT22;7666;50.920;4.628;2023-04-25T05:42:27;7.60;99.90
15131;DHT22;7666;50.920;4.628;2023-04-25T05:45:13;7.60;99.90
15131;DHT22;7666;50.920;4.628;2023-04-25T05:47:59;7.70;99.90
15131;DHT22;7666;50.920;4.628;2023-04-25T05:50:45;7.70;99.90
15131;DHT22;7666;50.920;4.628;2023-04-25T05:53:31;7.70;99.90
15131;DHT22;7666;50.920;4.628;2023-04-25T05:56:17;7.70;99.90
15131;DHT22;7666;50.920;4.628;2023-04-25T05:59:03;7.70;99.90
15131;DHT22;7666;50.920;4.628;2023-04-25T06:01:49;7.70;99.90
15131;DHT22;7666;50.920;4.628;2023-04-25T06:04:35;7.70;99.90
15131;DHT22;7666;50.920;4.628;2023-04-25T06:07:21;7.80;99.90
15131;DHT22;7666;50.920;4.628;2023-04-25T06:10:08;7.80;99.90
15131;DHT22;7666;50.920;4.628;2023-04-25T06:12:54;7.90;99.90
15131;DHT22;7666;50.920;4.628;2023-04-25T06:15:40;7.90;99.90
15131;DHT22;7666;50.920;4.628;2023-04-25T06:18:26;8.00;99.90
15131;DHT22;7666;50.920;4.628;2023-04-25T06:21:12;8.00;99.90
15131;DHT22;7666;50.920;4.628;2023-04-25T06:23:58;8.20;99.90
15131;DHT22;7666;50.920;4.628;2023-04-25T06:26:44;8.20;99.90
15131;DHT22;7666;50.920;4.628;2023-04-25T06:29:30;8.30;99.90
15131;DHT22;7666;50.920;4.628;2023-04-25T06:32:16;8.30;99.90
15131;DHT22;7666;50.920;4.628;2023-04-25T06:35:04;8.30;99.90
15131;DHT22;7666;50.920;4.628;2023-04-25T06:37:50;8.20;99.90
15131;DHT22;7666;50.920;4.628;2023-04-25T06:40:36;8.20;99.90
15131;DHT22;7666;50.920;4.628;2023-04-25T06:43:22;8.20;99.90
15131;DHT22;7666;50.920;4.628;2023-04-25T06:46:08;8.20;99.90
15131;DHT22;7666;50.920;4.628;2023-04-25T06:48:55;8.20;99.90
15131;DHT22;7666;50.920;4.628;2023-04-25T06:51:41;8.30;99.90
15131;DHT22;7666;50.920;4.628;2023-04-25T06:54:27;8.30;99.90
15131;DHT22;7666;50.920;4.628;2023-04-25T06:57:15;8.20;99.90
15131;DHT22;7666;50.920;4.628;2023-04-25T07:00:01;8.30;99.90
15131;DHT22;7666;50.920;4.628;2023-04-25T07:02:47;8.20;99.90
15131;DHT22;7666;50.920;4.628;2023-04-25T07:05:33;8.20;99.90
15131;DHT22;7666;50.920;4.628;2023-04-25T07:08:19;8.20;99.90
15131;DHT22;7666;50.920;4.628;2023-04-25T07:11:06;8.20;99.90
15131;DHT22;7666;50.920;4.628;2023-04-25T07:13:52;8.30;99.90
15131;DHT22;7666;50.920;4.628;2023-04-25T07:16:38;8.40;99.90
15131;DHT22;7666;50.920;4.628;2023-04-25T07:19:24;8.40;99.90
15131;DHT22;7666;50.920;4.628;2023-04-25T07:22:12;8.50;99.90
15131;DHT22;7666;50.920;4.628;2023-04-25T07:24:58;8.60;99.90
15131;DHT22;7666;50.920;4.628;2023-04-25T07:27:44;8.70;99.90
15131;DHT22;7666;50.920;4.628;2023-04-25T07:30:30;8.80;99.90
15131;DHT22;7666;50.920;4.628;2023-04-25T07:33:16;8.90;99.90
15131;DHT22;7666;50.920;4.628;2023-04-25T07:36:02;9.00;99.90
15131;DHT22;7666;50.920;4.628;2023-04-25T07:38:49;9.10;99.90
15131;DHT22;7666;50.920;4.628;2023-04-25T07:41:35;9.30;99.90
15131;DHT22;7666;50.920;4.628;2023-04-25T07:44:20;9.40;99.90
15131;DHT22;7666;50.920;4.628;2023-04-25T07:47:07;9.50;99.90
15131;DHT22;7666;50.920;4.628;2023-04-25T07:49:53;9.70;99.90
15131;DHT22;7666;50.920;4.628;2023-04-25T07:52:39;9.80;99.90
15131;DHT22;7666;50.920;4.628;2023-04-25T07:55:25;9.80;99.90
15131;DHT22;7666;50.920;4.628;2023-04-25T07:58:12;9.70;99.90
15131;DHT22;7666;50.920;4.628;2023-04-25T08:00:58;9.60;99.90
15131;DHT22;7666;50.920;4.628;2023-04-25T08:03:44;9.40;99.90
15131;DHT22;7666;50.920;4.628;2023-04-25T08:06:30;9.10;99.90
15131;DHT22;7666;50.920;4.628;2023-04-25T08:09:17;9.00;99.90
15131;DHT22;7666;50.920;4.628;2023-04-25T08:12:03;8.80;99.90
15131;DHT22;7666;50.920;4.628;2023-04-25T08:14:49;8.60;99.90
15131;DHT22;7666;50.920;4.628;2023-04-25T08:17:35;8.40;99.90
15131;DHT22;7666;50.920;4.628;2023-04-25T08:20:21;8.30;99.90
15131;DHT22;7666;50.920;4.628;2023-04-25T08:23:07;8.20;99.90
15131;DHT22;7666;50.920;4.628;2023-04-25T08:25:53;8.10;99.90
15131;DHT22;7666;50.920;4.628;2023-04-25T08:28:39;8.10;99.90
15131;DHT22;7666;50.920;4.628;2023-04-25T08:31:25;8.10;99.90
15131;DHT22;7666;50.920;4.628;2023-04-25T08:34:11;8.20;99.90
15131;DHT22;7666;50.920;4.628;2023-04-25T08:36:57;8.30;99.90
15131;DHT22;7666;50.920;4.628;2023-04-25T08:39:43;8.40;99.90
15131;DHT22;7666;50.920;4.628;2023-04-25T08:42:31;8.60;99.90
15131;DHT22;7666;50.920;4.628;2023-04-25T08:45:18;8.70;99.90
15131;DHT22;7666;50.920;4.628;2023-04-25T08:48:16;8.90;99.90
15131;DHT22;7666;50.920;4.628;2023-04-25T08:51:02;9.10;99.90
15131;DHT22;7666;50.920;4.628;2023-04-25T08:53:52;9.20;99.90
15131;DHT22;7666;50.920;4.628;2023-04-25T08:56:41;9.20;99.90
15131;DHT22;7666;50.920;4.628;2023-04-25T08:59:30;9.30;99.90
15131;DHT22;7666;50.920;4.628;2023-04-25T09:02:17;10.00;99.90
15131;DHT22;7666;50.920;4.628;2023-04-25T09:05:06;10.70;99.90
15131;DHT22;7666;50.920;4.628;2023-04-25T09:07:52;11.10;99.90
15131;DHT22;7666;50.920;4.628;2023-04-25T09:10:38;11.20;99.90
15131;DHT22;7666;50.920;4.628;2023-04-25T09:13:27;10.80;99.90
15131;DHT22;7666;50.920;4.628;2023-04-25T09:16:13;10.60;99.90
15131;DHT22;7666;50.920;4.628;2023-04-25T09:19:02;10.40;99.90
15131;DHT22;7666;50.920;4.628;2023-04-25T09:21:49;10.00;99.90
15131;DHT22;7666;50.920;4.628;2023-04-25T09:24:39;9.60;99.90
15131;DHT22;7666;50.920;4.628;2023-04-25T09:27:26;9.40;99.90
15131;DHT22;7666;50.920;4.628;2023-04-25T09:30:15;9.30;99.90
15131;DHT22;7666;50.920;4.628;2023-04-25T09:33:11;9.20;99.90
15131;DHT22;7666;50.920;4.628;2023-04-25T09:36:05;9.10;99.90
15131;DHT22;7666;50.920;4.628;2023-04-25T09:38:51;9.10;99.90
15131;DHT22;7666;50.920;4.628;2023-04-25T09:41:41;9.10;99.90
15131;DHT22;7666;50.920;4.628;2023-04-25T09:44:27;9.10;99.90
15131;DHT22;7666;50.920;4.628;2023-04-25T09:47:14;9.00;99.90
15131;DHT22;7666;50.920;4.628;2023-04-25T09:50:02;9.10;99.90
15131;DHT22;7666;50.920;4.628;2023-04-25T09:53:03;9.20;99.90
15131;DHT22;7666;50.920;4.628;2023-04-25T09:55:50;9.20;99.90
15131;DHT22;7666;50.920;4.628;2023-04-25T09:58:38;9.50;99.90
15131;DHT22;7666;50.920;4.628;2023-04-25T10:01:26;10.30;99.90
15131;DHT22;7666;50.920;4.628;2023-04-25T10:04:16;10.90;99.90
15131;DHT22;7666;50.920;4.628;2023-04-25T10:07:08;11.20;99.90
15131;DHT22;7666;50.920;4.628;2023-04-25T10:10:04;11.10;99.90
15131;DHT22;7666;50.920;4.628;2023-04-25T10:12:51;10.90;99.90
15131;DHT22;7666;50.920;4.628;2023-04-25T10:15:38;10.70;99.90
15131;DHT22;7666;50.920;4.628;2023-04-25T10:18:25;10.30;99.90
15131;DHT22;7666;50.920;4.628;2023-04-25T10:21:13;10.10;99.90
15131;DHT22;7666;50.920;4.628;2023-04-25T10:24:00;10.20;99.90
15131;DHT22;7666;50.920;4.628;2023-04-25T10:26:48;10.20;99.90
15131;DHT22;7666;50.920;4.628;2023-04-25T10:29:35;10.20;99.90
15131;DHT22;7666;50.920;4.628;2023-04-25T10:32:21;10.20;99.90
15131;DHT22;7666;50.920;4.628;2023-04-25T10:35:14;10.30;99.90
15131;DHT22;7666;50.920;4.628;2023-04-25T10:38:08;10.90;99.90
15131;DHT22;7666;50.920;4.628;2023-04-25T10:41:05;11.60;99.90
15131;DHT22;7666;50.920;4.628;2023-04-25T10:43:59;12.20;99.90
15131;DHT22;7666;50.920;4.628;2023-04-25T10:46:47;12.70;99.90
15131;DHT22;7666;50.920;4.628;2023-04-25T10:49:34;12.50;99.90
15131;DHT22;7666;50.920;4.628;2023-04-25T10:55:09;12.10;99.90
15131;DHT22;7666;50.920;4.628;2023-04-25T10:57:56;11.90;99.90
15131;DHT22;7666;50.920;4.628;2023-04-25T11:00:42;11.40;99.90
15131;DHT22;7666;50.920;4.628;2023-04-25T11:03:28;11.00;99.90
15131;DHT22;7666;50.920;4.628;2023-04-25T11:06:23;10.70;99.90
15131;DHT22;7666;50.920;4.628;2023-04-25T11:09:11;10.60;99.90
15131;DHT22;7666;50.920;4.628;2023-04-25T11:11:59;10.40;99.90
15131;DHT22;7666;50.920;4.628;2023-04-25T11:14:45;10.20;99.90
15131;DHT22;7666;50.920;4.628;2023-04-25T11:17:32;10.20;99.90
15131;DHT22;7666;50.920;4.628;2023-04-25T11:20:18;10.10;99.90
15131;DHT22;7666;50.920;4.628;2023-04-25T11:23:04;10.10;99.90
15131;DHT22;7666;50.920;4.628;2023-04-25T11:25:50;10.20;99.90
15131;DHT22;7666;50.920;4.628;2023-04-25T11:28:38;10.30;99.90
15131;DHT22;7666;50.920;4.628;2023-04-25T11:31:25;10.40;99.90
15131;DHT22;7666;50.920;4.628;2023-04-25T11:34:11;10.60;99.90
15131;DHT22;7666;50.920;4.628;2023-04-25T11:36:57;10.80;99.90
15131;DHT22;7666;50.920;4.628;2023-04-25T11:39:47;10.70;99.90
15131;DHT22;7666;50.920;4.628;2023-04-25T11:42:33;10.70;99.90
15131;DHT22;7666;50.920;4.628;2023-04-25T11:45:19;10.70;99.90
15131;DHT22;7666;50.920;4.628;2023-04-25T11:48:05;10.70;99.90
15131;DHT22;7666;50.920;4.628;2023-04-25T11:50:51;11.10;99.90
15131;DHT22;7666;50.920;4.628;2023-04-25T11:53:41;11.00;99.90
15131;DHT22;7666;50.920;4.628;2023-04-25T11:56:28;11.30;99.90
15131;DHT22;7666;50.920;4.628;2023-04-25T11:59:14;11.90;99.90
15131;DHT22;7666;50.920;4.628;2023-04-25T12:02:02;12.30;99.90
15131;DHT22;7666;50.920;4.628;2023-04-25T12:04:48;12.60;99.90
15131;DHT22;7666;50.920;4.628;2023-04-25T12:07:34;12.30;99.90
15131;DHT22;7666;50.920;4.628;2023-04-25T12:10:21;11.80;99.90
15131;DHT22;7666;50.920;4.628;2023-04-25T12:13:26;11.40;99.90
15131;DHT22;7666;50.920;4.628;2023-04-25T12:16:13;11.40;99.90
15131;DHT22;7666;50.920;4.628;2023-04-25T12:18:59;11.90;99.90
15131;DHT22;7666;50.920;4.628;2023-04-25T12:21:45;12.10;99.90
15131;DHT22;7666;50.920;4.628;2023-04-25T12:24:33;11.60;99.90
15131;DHT22;7666;50.920;4.628;2023-04-25T12:27:19;11.30;99.90
15131;DHT22;7666;50.920;4.628;2023-04-25T12:30:06;11.20;99.90
15131;DHT22;7666;50.920;4.628;2023-04-25T12:32:52;11.50;99.90
15131;DHT22;7666;50.920;4.628;2023-04-25T12:35:38;11.60;99.90
15131;DHT22;7666;50.920;4.628;2023-04-25T12:38:26;11.60;99.90
15131;DHT22;7666;50.920;4.628;2023-04-25T12:41:12;11.80;99.90
15131;DHT22;7666;50.920;4.628;2023-04-25T12:43:59;12.30;99.90
15131;DHT22;7666;50.920;4.628;2023-04-25T12:46:47;12.30;99.90
15131;DHT22;7666;50.920;4.628;2023-04-25T12:49:33;12.50;99.90
15131;DHT22;7666;50.920;4.628;2023-04-25T12:52:19;12.50;99.90
15131;DHT22;7666;50.920;4.628;2023-04-25T12:55:05;12.60;99.90
15131;DHT22;7666;50.920;4.628;2023-04-25T12:57:51;12.80;99.90
15131;DHT22;7666;50.920;4.628;2023-04-25T13:00:38;13.00;99.90
15131;DHT22;7666;50.920;4.628;2023-04-25T13:03:24;13.20;99.90
15131;DHT22;7666;50.920;4.628;2023-04-25T13:06:11;13.20;99.90
15131;DHT22;7666;50.920;4.628;2023-04-25T13:08:58;12.70;99.90
15131;DHT22;7666;50.920;4.628;2023-04-25T13:11:44;12.40;99.90
15131;DHT22;7666;50.920;4.628;2023-04-25T13:14:31;11.70;99.90
15131;DHT22;7666;50.920;4.628;2023-04-25T13:17:17;11.40;99.90
15131;DHT22;7666;50.920;4.628;2023-04-25T13:20:04;11.40;99.90
15131;DHT22;7666;50.920;4.628;2023-04-25T13:22:52;12.00;99.90
15131;DHT22;7666;50.920;4.628;2023-04-25T13:25:38;12.50;99.90
15131;DHT22;7666;50.920;4.628;2023-04-25T13:28:24;12.40;99.90
15131;DHT22;7666;50.920;4.628;2023-04-25T13:31:10;12.60;99.90
15131;DHT22;7666;50.920;4.628;2023-04-25T13:33:56;12.50;99.90
15131;DHT22;7666;50.920;4.628;2023-04-25T13:36:42;12.40;99.90
15131;DHT22;7666;50.920;4.628;2023-04-25T13:39:28;12.40;99.90
15131;DHT22;7666;50.920;4.628;2023-04-25T13:42:14;12.60;99.90
15131;DHT22;7666;50.920;4.628;2023-04-25T13:45:02;12.80;99.90
15131;DHT22;7666;50.920;4.628;2023-04-25T13:47:48;12.90;99.90
15131;DHT22;7666;50.920;4.628;2023-04-25T13:50:34;13.00;99.90
15131;DHT22;7666;50.920;4.628;2023-04-25T13:53:20;13.10;99.90
15131;DHT22;7666;50.920;4.628;2023-04-25T13:56:07;12.80;99.90
15131;DHT22;7666;50.920;4.628;2023-04-25T13:58:53;12.00;99.90
15131;DHT22;7666;50.920;4.628;2023-04-25T14:01:39;11.50;99.90
15131;DHT22;7666;50.920;4.628;2023-04-25T14:04:25;11.30;99.90
15131;DHT22;7666;50.920;4.628;2023-04-25T14:07:11;11.30;99.90
15131;DHT22;7666;50.920;4.628;2023-04-25T14:09:58;11.30;99.90
15131;DHT22;7666;50.920;4.628;2023-04-25T14:12:44;11.40;99.90
15131;DHT22;7666;50.920;4.628;2023-04-25T14:15:33;11.40;99.90
15131;DHT22;7666;50.920;4.628;2023-04-25T14:18:19;11.30;99.90
15131;DHT22;7666;50.920;4.628;2023-04-25T14:21:05;11.70;99.90
15131;DHT22;7666;50.920;4.628;2023-04-25T14:23:51;12.00;99.90
15131;DHT22;7666;50.920;4.628;2023-04-25T14:26:37;12.20;99.90
15131;DHT22;7666;50.920;4.628;2023-04-25T14:29:23;12.50;99.90
15131;DHT22;7666;50.920;4.628;2023-04-25T14:32:09;12.40;99.90
15131;DHT22;7666;50.920;4.628;2023-04-25T14:34:56;12.10;99.90
15131;DHT22;7666;50.920;4.628;2023-04-25T14:37:42;11.70;99.90
15131;DHT22;7666;50.920;4.628;2023-04-25T14:40:27;11.60;99.90
15131;DHT22;7666;50.920;4.628;2023-04-25T14:43:13;11.50;99.90
15131;DHT22;7666;50.920;4.628;2023-04-25T14:45:59;11.60;99.90
15131;DHT22;7666;50.920;4.628;2023-04-25T14:48:46;11.50;99.90
15131;DHT22;7666;50.920;4.628;2023-04-25T14:51:33;11.40;99.90
15131;DHT22;7666;50.920;4.628;2023-04-25T14:54:19;11.40;99.90
15131;DHT22;7666;50.920;4.628;2023-04-25T14:57:05;11.30;99.90
15131;DHT22;7666;50.920;4.628;2023-04-25T14:59:51;11.20;99.90
15131;DHT22;7666;50.920;4.628;2023-04-25T15:02:37;11.10;99.90
15131;DHT22;7666;50.920;4.628;2023-04-25T15:05:23;11.10;99.90
15131;DHT22;7666;50.920;4.628;2023-04-25T15:08:09;11.00;99.90
15131;DHT22;7666;50.920;4.628;2023-04-25T15:10:58;10.90;99.90
15131;DHT22;7666;50.920;4.628;2023-04-25T15:13:45;10.90;99.90
15131;DHT22;7666;50.920;4.628;2023-04-25T15:16:30;11.00;99.90
15131;DHT22;7666;50.920;4.628;2023-04-25T15:19:17;11.50;99.90
15131;DHT22;7666;50.920;4.628;2023-04-25T15:22:03;11.80;99.90
15131;DHT22;7666;50.920;4.628;2023-04-25T15:24:49;11.80;99.90
15131;DHT22;7666;50.920;4.628;2023-04-25T15:27:37;11.70;99.90
15131;DHT22;7666;50.920;4.628;2023-04-25T15:30:26;11.70;99.90
15131;DHT22;7666;50.920;4.628;2023-04-25T15:33:12;11.60;99.90
15131;DHT22;7666;50.920;4.628;2023-04-25T15:35:59;11.50;99.90
15131;DHT22;7666;50.920;4.628;2023-04-25T15:38:45;11.30;99.90
15131;DHT22;7666;50.920;4.628;2023-04-25T15:41:31;11.30;99.90
15131;DHT22;7666;50.920;4.628;2023-04-25T15:44:17;11.30;99.90
15131;DHT22;7666;50.920;4.628;2023-04-25T15:47:03;11.40;99.90
15131;DHT22;7666;50.920;4.628;2023-04-25T15:49:49;11.80;99.90
15131;DHT22;7666;50.920;4.628;2023-04-25T15:52:35;11.80;99.90
15131;DHT22;7666;50.920;4.628;2023-04-25T15:55:22;11.90;99.90
15131;DHT22;7666;50.920;4.628;2023-04-25T15:58:08;11.80;99.90
15131;DHT22;7666;50.920;4.628;2023-04-25T16:00:54;11.60;99.90
15131;DHT22;7666;50.920;4.628;2023-04-25T16:03:41;11.80;99.90
15131;DHT22;7666;50.920;4.628;2023-04-25T16:06:27;11.80;99.90
15131;DHT22;7666;50.920;4.628;2023-04-25T16:09:13;11.90;99.90
15131;DHT22;7666;50.920;4.628;2023-04-25T16:11:59;11.80;99.90
15131;DHT22;7666;50.920;4.628;2023-04-25T16:14:45;11.90;99.90
15131;DHT22;7666;50.920;4.628;2023-04-25T16:17:31;11.90;99.90
15131;DHT22;7666;50.920;4.628;2023-04-25T16:20:18;11.90;99.90
15131;DHT22;7666;50.920;4.628;2023-04-25T16:23:04;11.80;99.90
15131;DHT22;7666;50.920;4.628;2023-04-25T16:25:50;11.80;99.90
15131;DHT22;7666;50.920;4.628;2023-04-25T16:28:36;11.80;99.90
15131;DHT22;7666;50.920;4.628;2023-04-25T16:31:22;11.80;99.90
15131;DHT22;7666;50.920;4.628;2023-04-25T16:34:08;11.80;99.90
15131;DHT22;7666;50.920;4.628;2023-04-25T16:36:55;11.70;99.90
15131;DHT22;7666;50.920;4.628;2023-04-25T16:39:41;11.70;99.90
15131;DHT22;7666;50.920;4.628;2023-04-25T16:42:27;11.60;99.90
15131;DHT22;7666;50.920;4.628;2023-04-25T16:45:13;11.50;99.90
15131;DHT22;7666;50.920;4.628;2023-04-25T16:47:59;11.10;99.90
15131;DHT22;7666;50.920;4.628;2023-04-25T16:50:45;11.20;99.90
15131;DHT22;7666;50.920;4.628;2023-04-25T16:53:31;11.10;99.90
15131;DHT22;7666;50.920;4.628;2023-04-25T16:56:17;11.00;99.90
15131;DHT22;7666;50.920;4.628;2023-04-25T16:59:03;10.90;99.90
15131;DHT22;7666;50.920;4.628;2023-04-25T17:01:49;10.90;99.90
15131;DHT22;7666;50.920;4.628;2023-04-25T17:04:35;10.80;99.90
15131;DHT22;7666;50.920;4.628;2023-04-25T17:07:21;10.70;99.90
15131;DHT22;7666;50.920;4.628;2023-04-25T17:10:09;10.60;99.90
15131;DHT22;7666;50.920;4.628;2023-04-25T17:12:55;10.60;99.90
15131;DHT22;7666;50.920;4.628;2023-04-25T17:15:41;10.60;99.90
15131;DHT22;7666;50.920;4.628;2023-04-25T17:18:27;10.50;99.90
15131;DHT22;7666;50.920;4.628;2023-04-25T17:21:13;10.50;99.90
15131;DHT22;7666;50.920;4.628;2023-04-25T17:23:59;10.40;99.90
15131;DHT22;7666;50.920;4.628;2023-04-25T17:26:46;10.40;99.90
15131;DHT22;7666;50.920;4.628;2023-04-25T17:29:32;10.40;99.90
15131;DHT22;7666;50.920;4.628;2023-04-25T17:32:19;10.30;99.90
15131;DHT22;7666;50.920;4.628;2023-04-25T17:35:05;10.20;99.90
15131;DHT22;7666;50.920;4.628;2023-04-25T17:37:52;10.20;99.90
15131;DHT22;7666;50.920;4.628;2023-04-25T17:40:38;10.00;99.90
15131;DHT22;7666;50.920;4.628;2023-04-25T17:43:24;9.90;99.90
15131;DHT22;7666;50.920;4.628;2023-04-25T17:46:12;9.90;99.90
15131;DHT22;7666;50.920;4.628;2023-04-25T17:48:58;9.70;99.90
15131;DHT22;7666;50.920;4.628;2023-04-25T17:51:44;9.70;99.90
15131;DHT22;7666;50.920;4.628;2023-04-25T17:54:30;9.70;99.90
15131;DHT22;7666;50.920;4.628;2023-04-25T17:57:16;9.60;99.90
15131;DHT22;7666;50.920;4.628;2023-04-25T18:00:03;9.60;99.90
15131;DHT22;7666;50.920;4.628;2023-04-25T18:02:52;9.50;99.90